Time;durP1;ratioP1;P1;durP2;ratioP2;P2;SDS_P1;SDS_P2;PMS_P1;PMS_P2;Temp;Humidity;BMP_temperature;BMP_pressure;BME280_temperature;BME280_humidity;BME280_pressure;Samples;Min_cycle;Max_cycle;Signal;HPM_P1;HPM_P2
2021/11/29 00:01:14;;;;;;;6.20;0.90;;;24.40;90.90;;;;;;5043021;28;20030;-75
2021/11/29 00:03:43;;;;;;;3.78;1.10;;;24.70;90.40;;;;;;5049036;28;20502;-75
2021/11/29 00:06:11;;;;;;;6.82;0.98;;;24.60;89.80;;;;;;5049798;28;20021;-76
2021/11/29 00:08:38;;;;;;;4.57;1.52;;;24.80;90.80;;;;;;5040238;28;20470;-73
2021/11/29 00:11:05;;;;;;;8.35;1.30;;;24.90;91.00;;;;;;5046443;28;20025;-74
2021/11/29 00:13:33;;;;;;;5.68;1.13;;;24.90;86.30;;;;;;5047992;28;20025;-75
2021/11/29 00:16:00;;;;;;;4.07;0.82;;;24.60;89.00;;;;;;5050207;28;20123;-73
2021/11/29 00:18:28;;;;;;;3.60;0.52;;;24.70;90.30;;;;;;5052859;28;20055;-74
2021/11/29 00:20:55;;;;;;;7.28;1.00;;;24.90;89.50;;;;;;5046043;28;20061;-74
2021/11/29 00:23:23;;;;;;;7.38;1.67;;;25.10;87.10;;;;;;5045293;28;20029;-74
2021/11/29 00:25:51;;;;;;;2.53;1.35;;;24.90;86.70;;;;;;5050904;28;20397;-74
2021/11/29 00:28:18;;;;;;;4.50;0.63;;;24.30;88.80;;;;;;5051326;28;20079;-75
2021/11/29 00:30:49;;;;;;;4.35;0.70;;;24.30;89.50;;;;;;5046956;28;20143;-73
2021/11/29 00:33:17;;;;;;;6.18;0.85;;;24.20;89.90;;;;;;5051357;28;20091;-74
2021/11/29 00:35:45;;;;;;;6.80;0.93;;;24.00;88.70;;;;;;5049409;28;20043;-73
2021/11/29 00:38:13;;;;;;;9.80;0.63;;;23.80;90.60;;;;;;5049133;28;20476;-74
2021/11/29 00:40:42;;;;;;;8.73;1.00;;;23.90;89.80;;;;;;5045214;28;20039;-74
2021/11/29 00:43:10;;;;;;;8.00;0.88;;;24.00;89.50;;;;;;5050928;28;20052;-73
2021/11/29 00:45:38;;;;;;;6.68;1.25;;;24.10;90.00;;;;;;5046063;28;20040;-74
2021/11/29 00:48:06;;;;;;;4.45;1.40;;;24.30;89.50;;;;;;5049712;28;20044;-76
2021/11/29 00:50:37;;;;;;;4.28;0.90;;;24.60;89.00;;;;;;5049548;28;20024;-76
2021/11/29 00:53:06;;;;;;;9.23;0.90;;;24.90;88.30;;;;;;5050266;28;20025;-75
2021/11/29 00:55:35;;;;;;;3.35;1.15;;;24.90;87.30;;;;;;5048850;28;20021;-74
2021/11/29 00:58:04;;;;;;;7.85;1.55;;;25.20;88.10;;;;;;5049582;28;20439;-74
2021/11/29 01:00:32;;;;;;;4.50;0.55;;;25.00;86.60;;;;;;5032604;28;20029;-74
2021/11/29 01:02:59;;;;;;;5.00;0.60;;;25.10;88.50;;;;;;5046873;28;20045;-74
2021/11/29 01:05:27;;;;;;;5.88;1.10;;;25.30;87.10;;;;;;5048203;28;20017;-70
2021/11/29 01:07:54;;;;;;;3.28;0.60;;;25.00;87.10;;;;;;5042432;28;20021;-73
2021/11/29 01:10:25;;;;;;;7.07;2.38;;;25.00;89.30;;;;;;5049811;28;20595;-74
2021/11/29 01:12:53;;;;;;;5.32;0.60;;;25.20;87.50;;;;;;5044324;28;20052;-74
2021/11/29 01:15:23;;;;;;;5.25;0.80;;;25.40;89.30;;;;;;5043310;28;20025;-73
2021/11/29 01:17:51;;;;;;;4.25;0.80;;;25.70;90.00;;;;;;5049119;28;20108;-74
2021/11/29 01:20:19;;;;;;;8.00;0.88;;;26.00;87.90;;;;;;5043993;28;20045;-74
2021/11/29 01:22:46;;;;;;;3.75;0.68;;;26.50;86.90;;;;;;5044882;28;20036;-74
2021/11/29 01:25:15;;;;;;;5.88;1.48;;;26.60;83.30;;;;;;5049995;28;20527;-73
2021/11/29 01:27:42;;;;;;;3.92;0.57;;;26.50;83.80;;;;;;5051100;28;20064;-73
2021/11/29 01:30:13;;;;;;;3.83;0.90;;;26.00;83.10;;;;;;5042475;28;20077;-71
2021/11/29 01:32:40;;;;;;;5.45;2.42;;;25.40;87.20;;;;;;5045405;28;20028;-72
2021/11/29 01:35:08;;;;;;;7.18;1.15;;;25.10;87.50;;;;;;5047954;28;20987;-72
2021/11/29 01:37:36;;;;;;;3.00;0.98;;;24.80;87.90;;;;;;5038761;28;20118;-74
2021/11/29 01:40:06;;;;;;;7.18;0.98;;;24.80;87.80;;;;;;5043049;28;20056;-76
2021/11/29 01:42:34;;;;;;;6.40;0.98;;;24.80;87.90;;;;;;5049904;28;20032;-74
2021/11/29 01:45:02;;;;;;;2.25;0.73;;;24.90;88.70;;;;;;5048985;28;20025;-75
2021/11/29 01:47:30;;;;;;;4.65;1.17;;;25.00;88.00;;;;;;5050788;28;20384;-75
2021/11/29 01:49:57;;;;;;;3.47;0.70;;;24.90;89.20;;;;;;5051658;28;20036;-75
2021/11/29 01:52:25;;;;;;;7.93;0.90;;;24.50;89.70;;;;;;5052634;28;20365;-75
2021/11/29 01:54:52;;;;;;;3.83;0.68;;;24.10;90.20;;;;;;5046851;28;20075;-75
2021/11/29 01:57:20;;;;;;;1.73;0.90;;;23.90;91.30;;;;;;5050331;28;20764;-74
2021/11/29 01:59:49;;;;;;;2.97;0.85;;;23.80;90.90;;;;;;5048992;28;20070;-75
2021/11/29 02:02:17;;;;;;;6.30;1.17;;;24.00;91.40;;;;;;5043118;28;20037;-74
2021/11/29 02:04:46;;;;;;;2.80;0.90;;;24.20;91.10;;;;;;5045832;28;20033;-75
2021/11/29 02:07:14;;;;;;;1.85;0.40;;;24.50;90.70;;;;;;5048085;28;20469;-74
2021/11/29 02:09:41;;;;;;;4.28;1.55;;;24.90;90.60;;;;;;5046252;28;20484;-73
2021/11/29 02:12:09;;;;;;;6.40;0.88;;;25.00;90.30;;;;;;5047638;28;20376;-75
2021/11/29 02:14:38;;;;;;;2.55;0.75;;;25.10;89.20;;;;;;5037944;28;20104;-74
2021/11/29 02:17:06;;;;;;;5.88;0.80;;;24.90;89.50;;;;;;5047424;28;20025;-71
2021/11/29 02:19:41;;;;;;;2.95;0.60;;;25.00;91.30;;;;;;5046887;28;20025;-73
2021/11/29 02:22:09;;;;;;;2.67;0.68;;;25.50;90.00;;;;;;5049250;28;20033;-74
2021/11/29 02:24:37;;;;;;;2.03;0.52;;;25.90;88.70;;;;;;5050381;28;20478;-73
2021/11/29 02:27:05;;;;;;;4.15;0.85;;;25.80;87.30;;;;;;5046988;28;20484;-73
2021/11/29 02:29:35;;;;;;;3.97;1.48;;;25.60;90.30;;;;;;5048721;28;20021;-75
2021/11/29 02:32:03;;;;;;;3.05;0.93;;;25.90;90.90;;;;;;5046051;28;20057;-76
2021/11/29 02:34:32;;;;;;;5.93;0.68;;;26.10;88.60;;;;;;5049456;28;20075;-73
2021/11/29 02:37:02;;;;;;;6.72;0.90;;;26.10;90.10;;;;;;5048181;28;20036;-77
2021/11/29 02:39:30;;;;;;;4.40;0.90;;;26.10;88.80;;;;;;5048527;28;20475;-76
2021/11/29 02:41:59;;;;;;;3.72;1.38;;;26.50;88.00;;;;;;5041566;28;20029;-75
2021/11/29 02:44:27;;;;;;;2.38;0.85;;;27.00;90.90;;;;;;5048776;28;20044;-75
2021/11/29 02:46:55;;;;;;;4.30;0.90;;;26.70;87.10;;;;;;5043870;28;20025;-73
2021/11/29 02:49:22;;;;;;;5.50;0.98;;;26.00;88.50;;;;;;5046266;28;20036;-74
2021/11/29 02:51:56;;;;;;;6.15;0.95;;;25.90;89.00;;;;;;5048861;28;20029;-72
2021/11/29 02:54:30;;;;;;;2.58;1.00;;;25.80;90.20;;;;;;5037352;28;20544;-74
2021/11/29 02:57:00;;;;;;;3.75;0.60;;;25.90;88.30;;;;;;5040684;28;20399;-74
2021/11/29 02:59:30;;;;;;;3.13;0.98;;;26.00;90.00;;;;;;5039261;28;20021;-73
2021/11/29 03:02:03;;;;;;;1.20;0.43;;;26.30;90.40;;;;;;5037257;28;20041;-74
2021/11/29 03:04:32;;;;;;;3.33;0.60;;;26.40;89.70;;;;;;5042521;28;20472;-75
2021/11/29 03:07:01;;;;;;;4.45;1.13;;;26.60;90.20;;;;;;5046541;28;20415;-73
2021/11/29 03:09:29;;;;;;;5.03;0.80;;;26.40;89.60;;;;;;5047326;28;20037;-74
2021/11/29 03:11:56;;;;;;;4.95;1.30;;;25.40;89.30;;;;;;5046685;28;20044;-74
2021/11/29 03:14:24;;;;;;;4.47;0.82;;;25.00;91.30;;;;;;5047698;28;20052;-75
2021/11/29 03:16:54;;;;;;;4.10;1.38;;;24.70;91.60;;;;;;5046204;28;20028;-73
2021/11/29 03:19:23;;;;;;;5.28;0.73;;;24.90;92.00;;;;;;5045563;28;20442;-73
2021/11/29 03:21:52;;;;;;;1.83;0.70;;;25.40;90.80;;;;;;5048024;28;20476;-73
2021/11/29 03:24:19;;;;;;;3.67;0.93;;;25.40;91.50;;;;;;5047455;28;20486;-73
2021/11/29 03:26:47;;;;;;;5.15;1.20;;;25.20;91.40;;;;;;5047280;28;20104;-73
2021/11/29 03:29:17;;;;;;;5.85;1.23;;;24.90;92.00;;;;;;5053278;28;20033;-73
2021/11/29 03:31:45;;;;;;;2.05;0.50;;;24.70;92.00;;;;;;5051896;28;20045;-74
2021/11/29 03:34:15;;;;;;;3.50;0.85;;;24.90;91.90;;;;;;5052695;28;20384;-73
2021/11/29 03:36:45;;;;;;;2.58;0.75;;;25.20;92.10;;;;;;5052479;28;20032;-76
2021/11/29 03:39:17;;;;;;;6.80;1.25;;;25.50;92.00;;;;;;5052423;28;20395;-72
2021/11/29 03:41:46;;;;;;;5.25;0.85;;;25.60;91.10;;;;;;5050244;28;20108;-74
2021/11/29 03:44:14;;;;;;;4.63;1.50;;;25.50;91.20;;;;;;5050897;28;20033;-74
2021/11/29 03:46:43;;;;;;;4.78;1.02;;;25.70;91.70;;;;;;5051076;28;20053;-75
2021/11/29 03:49:11;;;;;;;6.50;0.80;;;25.60;92.20;;;;;;5049680;28;20032;-73
2021/11/29 03:51:39;;;;;;;8.88;1.73;;;25.30;91.10;;;;;;5047141;28;20094;-76
2021/11/29 03:54:07;;;;;;;7.13;1.10;;;25.50;91.80;;;;;;5048830;28;20029;-75
2021/11/29 03:56:35;;;;;;;6.10;0.90;;;25.70;91.50;;;;;;5043897;28;20036;-76
2021/11/29 03:59:04;;;;;;;3.85;1.05;;;25.80;92.30;;;;;;5034835;28;20476;-74
2021/11/29 04:01:33;;;;;;;6.65;0.80;;;25.90;91.80;;;;;;5041797;28;20025;-75
2021/11/29 04:04:01;;;;;;;5.57;0.75;;;25.90;91.70;;;;;;5042380;28;20120;-76
2021/11/29 04:06:29;;;;;;;4.85;1.08;;;25.70;90.90;;;;;;5043710;28;20021;-75
2021/11/29 04:08:56;;;;;;;6.88;1.33;;;25.80;91.70;;;;;;5044216;28;20029;-75
2021/11/29 04:11:24;;;;;;;4.53;0.85;;;25.70;91.20;;;;;;5042657;28;20534;-74
2021/11/29 04:13:52;;;;;;;4.35;1.13;;;25.50;92.10;;;;;;5052411;28;20040;-75
2021/11/29 04:16:19;;;;;;;5.32;1.00;;;25.30;92.10;;;;;;5046196;28;20032;-75
2021/11/29 04:18:47;;;;;;;5.35;1.27;;;25.30;92.50;;;;;;5040153;28;20043;-75
2021/11/29 04:21:16;;;;;;;4.65;1.08;;;25.30;92.10;;;;;;5050439;28;20056;-74
2021/11/29 04:23:45;;;;;;;7.70;1.65;;;25.40;92.60;;;;;;5051395;28;20044;-74
2021/11/29 04:26:16;;;;;;;3.65;1.30;;;25.50;92.40;;;;;;5051756;28;20417;-77
2021/11/29 04:28:44;;;;;;;2.47;0.68;;;25.70;91.90;;;;;;5045717;28;20047;-75
2021/11/29 04:31:11;;;;;;;3.47;0.85;;;25.50;91.90;;;;;;5049950;28;20044;-74
2021/11/29 04:33:39;;;;;;;5.10;0.80;;;25.20;92.70;;;;;;5051330;28;20420;-76
2021/11/29 04:36:07;;;;;;;4.65;0.50;;;25.00;92.20;;;;;;5037241;28;20109;-75
2021/11/29 04:38:34;;;;;;;4.22;1.15;;;25.00;92.50;;;;;;5048176;28;20021;-74
2021/11/29 04:41:02;;;;;;;3.85;0.70;;;24.80;92.80;;;;;;5048872;28;20086;-75
2021/11/29 04:43:30;;;;;;;2.95;0.65;;;24.70;93.10;;;;;;5049592;28;20032;-75
2021/11/29 04:45:58;;;;;;;5.75;1.13;;;24.80;93.40;;;;;;5042917;28;20021;-74
2021/11/29 04:48:25;;;;;;;7.18;1.52;;;24.90;93.10;;;;;;5044088;28;20025;-72
2021/11/29 04:50:52;;;;;;;1.75;0.60;;;25.00;93.70;;;;;;5050811;28;20369;-73
2021/11/29 04:53:20;;;;;;;6.55;0.82;;;24.80;93.40;;;;;;5049124;28;20058;-74
2021/11/29 04:55:47;;;;;;;6.60;1.00;;;24.60;93.70;;;;;;5041073;28;20035;-74
2021/11/29 04:58:15;;;;;;;6.20;1.13;;;24.50;94.40;;;;;;5048815;28;20064;-76
2021/11/29 05:00:48;;;;;;;4.75;1.75;;;24.40;94.00;;;;;;5045961;28;20052;-75
2021/11/29 05:03:15;;;;;;;4.30;0.82;;;24.20;94.10;;;;;;5048672;28;20049;-77
2021/11/29 05:05:42;;;;;;;5.25;0.50;;;23.90;94.00;;;;;;5050069;28;20029;-75
2021/11/29 05:08:10;;;;;;;4.18;1.00;;;23.80;94.50;;;;;;5048398;28;20369;-75
2021/11/29 05:10:37;;;;;;;5.88;0.88;;;23.80;94.70;;;;;;5043340;28;20052;-74
2021/11/29 05:13:05;;;;;;;2.15;0.50;;;23.70;95.00;;;;;;5041506;28;20124;-73
2021/11/29 05:15:32;;;;;;;5.00;0.90;;;23.70;94.80;;;;;;5042369;28;20024;-77
2021/11/29 05:17:59;;;;;;;4.20;0.90;;;23.80;95.10;;;;;;5039852;28;20036;-78
2021/11/29 05:20:27;;;;;;;6.15;1.40;;;23.90;94.90;;;;;;5047464;28;20476;-76
2021/11/29 05:22:55;;;;;;;4.57;1.50;;;23.70;94.70;;;;;;5043916;28;20037;-76
2021/11/29 05:25:22;;;;;;;6.32;1.27;;;23.60;95.30;;;;;;5045021;28;20024;-75
2021/11/29 05:27:50;;;;;;;3.17;0.50;;;23.60;95.50;;;;;;5048472;28;20476;-77
2021/11/29 05:30:17;;;;;;;4.53;1.00;;;23.60;95.80;;;;;;5047959;28;20058;-76
2021/11/29 05:32:44;;;;;;;2.45;0.52;;;23.70;96.00;;;;;;5041520;28;20111;-76
2021/11/29 05:35:12;;;;;;;6.88;1.30;;;23.70;95.70;;;;;;5049517;28;20021;-79
2021/11/29 05:37:39;;;;;;;7.38;1.08;;;23.80;95.40;;;;;;5045554;28;20053;-77
2021/11/29 05:40:07;;;;;;;10.75;0.95;;;23.80;95.40;;;;;;5049746;28;20494;-74
2021/11/29 05:42:35;;;;;;;7.85;0.95;;;23.80;95.70;;;;;;5045668;28;20048;-75
2021/11/29 05:45:02;;;;;;;2.95;0.52;;;23.80;96.00;;;;;;5043323;28;20024;-76
2021/11/29 05:47:30;;;;;;;5.97;0.80;;;23.80;95.50;;;;;;5050155;28;20024;-76
2021/11/29 05:49:57;;;;;;;10.50;0.93;;;23.90;95.50;;;;;;5051113;28;20020;-75
2021/11/29 05:52:24;;;;;;;6.82;1.10;;;23.90;95.60;;;;;;5045223;28;20484;-75
2021/11/29 05:54:52;;;;;;;3.58;0.77;;;23.90;95.60;;;;;;5031426;28;20664;-73
2021/11/29 05:57:19;;;;;;;4.40;1.58;;;23.90;95.60;;;;;;5051247;28;20029;-74
2021/11/29 05:59:47;;;;;;;2.50;0.70;;;23.80;95.90;;;;;;5046304;28;20119;-73
2021/11/29 06:02:14;;;;;;;4.38;0.73;;;23.90;96.20;;;;;;5048859;28;20083;-75
2021/11/29 06:04:41;;;;;;;6.30;0.98;;;23.90;95.70;;;;;;5051589;28;20021;-74
2021/11/29 06:07:09;;;;;;;5.72;1.67;;;23.90;96.20;;;;;;5050576;28;20025;-75
2021/11/29 06:09:36;;;;;;;1.92;0.57;;;23.90;96.90;;;;;;5050216;28;20033;-75
2021/11/29 06:12:04;;;;;;;6.45;0.77;;;23.90;96.50;;;;;;5050231;28;20472;-75
2021/11/29 06:14:31;;;;;;;3.35;0.65;;;24.00;96.60;;;;;;5050323;28;20468;-75
2021/11/29 06:16:59;;;;;;;2.88;0.60;;;23.90;96.70;;;;;;5044091;28;20079;-75
2021/11/29 06:19:26;;;;;;;6.75;0.95;;;23.80;96.20;;;;;;5043495;28;20029;-75
2021/11/29 06:21:53;;;;;;;4.45;0.75;;;23.90;96.70;;;;;;5043277;28;20048;-76
2021/11/29 06:24:21;;;;;;;4.53;1.35;;;23.90;96.40;;;;;;5048359;28;20029;-75
2021/11/29 06:26:48;;;;;;;1.85;0.60;;;23.90;96.20;;;;;;5048240;28;20021;-76
2021/11/29 06:29:15;;;;;;;10.52;1.08;;;24.00;96.50;;;;;;5046211;28;20075;-74
2021/11/29 06:31:43;;;;;;;9.32;1.15;;;24.00;96.00;;;;;;5050082;28;20040;-75
2021/11/29 06:34:10;;;;;;;3.20;0.70;;;23.90;96.30;;;;;;5045638;28;20087;-76
2021/11/29 06:36:38;;;;;;;5.07;1.15;;;23.80;96.90;;;;;;5047336;28;20051;-75
2021/11/29 06:39:05;;;;;;;5.75;1.13;;;23.70;96.60;;;;;;5049128;28;20108;-75
2021/11/29 06:41:33;;;;;;;2.63;1.00;;;23.70;96.60;;;;;;5048732;28;20032;-75
2021/11/29 06:44:00;;;;;;;4.35;1.02;;;23.70;96.80;;;;;;5049310;28;20072;-75
2021/11/29 06:46:28;;;;;;;5.45;1.00;;;23.60;97.20;;;;;;5047915;28;20025;-75
2021/11/29 06:48:55;;;;;;;3.90;1.17;;;23.50;97.30;;;;;;5049313;28;20476;-75
2021/11/29 06:51:26;;;;;;;7.10;0.80;;;23.50;97.40;;;;;;5048864;28;20033;-75
2021/11/29 06:53:54;;;;;;;3.90;1.08;;;23.50;97.30;;;;;;5049016;28;20021;-75
2021/11/29 06:56:21;;;;;;;14.27;3.20;;;23.60;97.40;;;;;;5048593;28;20452;-75
2021/11/29 06:58:49;;;;;;;10.02;2.15;;;23.60;97.20;;;;;;5033008;28;20033;-73
2021/11/29 07:01:16;;;;;;;16.05;2.83;;;23.60;96.90;;;;;;5044458;28;20057;-74
2021/11/29 07:03:45;;;;;;;14.27;2.17;;;23.60;96.70;;;;;;5048745;28;20523;-76
2021/11/29 07:06:12;;;;;;;7.35;1.63;;;23.60;96.40;;;;;;5052675;28;20468;-74
2021/11/29 07:08:40;;;;;;;5.93;1.40;;;23.60;96.40;;;;;;5053791;28;20025;-76
2021/11/29 07:11:08;;;;;;;6.53;1.38;;;23.50;96.50;;;;;;5052512;28;20017;-78
2021/11/29 07:13:36;;;;;;;7.28;1.30;;;23.40;96.40;;;;;;5053891;28;20047;-75
2021/11/29 07:16:04;;;;;;;13.23;1.17;;;23.30;96.60;;;;;;5052559;28;20025;-78
2021/11/29 07:18:32;;;;;;;6.30;1.48;;;23.00;96.80;;;;;;5048086;28;20495;-80
2021/11/29 07:20:59;;;;;;;7.63;1.77;;;22.90;97.10;;;;;;5053362;28;20155;-78
2021/11/29 07:23:26;;;;;;;7.00;1.25;;;22.80;97.40;;;;;;5049062;28;20129;-78
2021/11/29 07:25:54;;;;;;;9.85;1.30;;;22.80;97.50;;;;;;5054177;28;20035;-78
2021/11/29 07:28:21;;;;;;;7.70;1.98;;;22.80;97.60;;;;;;5042804;28;20438;-77
2021/11/29 07:30:49;;;;;;;4.93;0.70;;;22.80;97.60;;;;;;5049785;28;20045;-79
2021/11/29 07:33:16;;;;;;;6.80;1.77;;;22.80;97.80;;;;;;5052133;28;20021;-79
2021/11/29 07:35:44;;;;;;;4.60;1.55;;;22.70;97.60;;;;;;5051850;28;20099;-78
2021/11/29 07:38:12;;;;;;;5.10;1.65;;;22.60;97.80;;;;;;5055214;28;20029;-77
2021/11/29 07:40:40;;;;;;;8.45;1.30;;;22.50;97.90;;;;;;5053318;28;20079;-76
2021/11/29 07:43:10;;;;;;;7.55;1.70;;;22.50;98.00;;;;;;5053683;28;20033;-78
2021/11/29 07:45:39;;;;;;;6.70;1.35;;;22.40;98.20;;;;;;5052548;28;20230;-77
2021/11/29 07:48:07;;;;;;;3.97;1.00;;;22.40;98.40;;;;;;5054300;28;20120;-75
2021/11/29 07:50:35;;;;;;;8.40;1.85;;;22.30;98.50;;;;;;5053001;28;20074;-78
2021/11/29 07:53:03;;;;;;;7.53;1.35;;;22.10;98.80;;;;;;5053768;28;20032;-77
2021/11/29 07:55:30;;;;;;;8.73;1.25;;;22.10;98.80;;;;;;5052281;28;20061;-79
2021/11/29 07:58:03;;;;;;;9.23;2.00;;;22.10;99.10;;;;;;5053612;28;20083;-78
2021/11/29 08:00:34;;;;;;;7.13;1.20;;;22.00;99.10;;;;;;5051232;28;20028;-79
2021/11/29 08:03:03;;;;;;;6.50;1.52;;;21.90;99.10;;;;;;5048326;28;20037;-78
2021/11/29 08:05:32;;;;;;;5.30;1.58;;;21.80;99.20;;;;;;5053387;28;20031;-79
2021/11/29 08:08:03;;;;;;;9.98;2.70;;;21.80;99.50;;;;;;5053520;28;20524;-77
2021/11/29 08:10:33;;;;;;;5.15;1.55;;;21.70;99.60;;;;;;5044982;28;20592;-78
2021/11/29 08:13:02;;;;;;;5.78;1.25;;;21.60;99.50;;;;;;5036032;28;20175;-78
2021/11/29 08:15:29;;;;;;;4.07;1.70;;;21.60;99.60;;;;;;5034936;28;20032;-79
2021/11/29 08:17:57;;;;;;;6.45;1.70;;;21.50;99.70;;;;;;5034675;28;20029;-79
2021/11/29 08:20:24;;;;;;;10.27;1.65;;;21.40;99.90;;;;;;5043079;28;20037;-79
2021/11/29 08:22:53;;;;;;;4.43;2.05;;;21.40;99.90;;;;;;5054627;28;20036;-76
2021/11/29 08:25:21;;;;;;;11.00;1.83;;;21.40;99.90;;;;;;5051097;28;20025;-79
2021/11/29 08:27:49;;;;;;;7.63;2.97;;;21.30;99.90;;;;;;5050747;28;20133;-79
2021/11/29 08:30:19;;;;;;;8.18;1.35;;;21.20;99.90;;;;;;5048719;28;20035;-78
2021/11/29 08:32:46;;;;;;;7.10;1.25;;;21.10;99.90;;;;;;5053127;28;20025;-76
2021/11/29 08:35:15;;;;;;;5.57;0.93;;;21.00;99.90;;;;;;5047446;28;20652;-77
2021/11/29 08:37:46;;;;;;;5.07;1.20;;;20.90;99.90;;;;;;5052956;28;20037;-79
2021/11/29 08:40:15;;;;;;;6.45;0.88;;;20.90;99.90;;;;;;5050394;28;20021;-78
2021/11/29 08:42:43;;;;;;;6.93;1.45;;;20.90;99.90;;;;;;5043294;28;20484;-79
2021/11/29 08:45:11;;;;;;;6.60;1.17;;;20.80;99.90;;;;;;5043029;28;20041;-78
2021/11/29 08:47:39;;;;;;;7.78;1.95;;;20.80;99.90;;;;;;5052024;28;20114;-75
2021/11/29 08:50:07;;;;;;;7.97;2.05;;;20.80;99.90;;;;;;5051057;28;22047;-75
2021/11/29 08:52:34;;;;;;;4.00;0.88;;;20.70;99.90;;;;;;5052153;28;20430;-77
2021/11/29 08:55:06;;;;;;;7.07;1.30;;;20.70;99.90;;;;;;5051500;28;20562;-78
2021/11/29 08:57:34;;;;;;;5.72;1.20;;;20.80;99.90;;;;;;5049761;28;20139;-79
2021/11/29 09:00:04;;;;;;;8.10;1.50;;;20.80;99.90;;;;;;5044250;28;20033;-75
2021/11/29 09:02:32;;;;;;;6.60;2.20;;;20.80;99.90;;;;;;5050028;28;20037;-76
2021/11/29 09:04:59;;;;;;;4.97;0.70;;;20.80;99.90;;;;;;5034893;28;20017;-76
2021/11/29 09:07:27;;;;;;;9.32;1.80;;;20.80;99.90;;;;;;5053611;28;20112;-76
2021/11/29 09:09:54;;;;;;;7.18;1.77;;;20.80;99.90;;;;;;5050105;28;20036;-77
2021/11/29 09:12:21;;;;;;;4.75;1.20;;;20.70;99.90;;;;;;5040165;28;20095;-75
2021/11/29 09:14:49;;;;;;;6.72;1.10;;;20.70;99.90;;;;;;5048573;28;20041;-75
2021/11/29 09:17:17;;;;;;;8.95;1.50;;;20.70;99.90;;;;;;5042830;28;20029;-75
2021/11/29 09:19:44;;;;;;;6.85;1.80;;;20.70;99.90;;;;;;5040497;28;20025;-79
2021/11/29 09:22:12;;;;;;;8.32;1.77;;;20.60;99.90;;;;;;5044918;28;20029;-77
2021/11/29 09:24:39;;;;;;;8.02;1.70;;;20.50;99.90;;;;;;5050871;28;20040;-77
2021/11/29 09:27:07;;;;;;;9.10;1.45;;;20.40;99.90;;;;;;5043759;28;20086;-75
2021/11/29 09:29:35;;;;;;;6.22;1.63;;;20.30;99.90;;;;;;5045419;28;20041;-77
2021/11/29 09:32:04;;;;;;;5.55;1.48;;;20.30;99.90;;;;;;5043105;28;20195;-74
2021/11/29 09:34:32;;;;;;;10.35;1.83;;;20.30;99.90;;;;;;5044940;28;20029;-75
2021/11/29 09:36:59;;;;;;;6.45;1.38;;;20.30;99.90;;;;;;5039682;28;20026;-77
2021/11/29 09:39:27;;;;;;;4.82;1.10;;;20.30;99.90;;;;;;5037350;28;20075;-77
2021/11/29 09:41:54;;;;;;;8.35;1.88;;;20.20;99.90;;;;;;5042264;28;20052;-77
2021/11/29 09:44:22;;;;;;;3.83;0.95;;;20.20;99.90;;;;;;5040654;28;20029;-77
2021/11/29 09:46:49;;;;;;;8.68;2.00;;;20.20;99.90;;;;;;5045663;28;20040;-75
2021/11/29 09:49:17;;;;;;;4.95;1.20;;;20.30;99.90;;;;;;5047735;28;20056;-77
2021/11/29 09:51:44;;;;;;;10.68;2.30;;;20.20;99.90;;;;;;5046535;28;20029;-78
2021/11/29 09:54:12;;;;;;;11.65;1.60;;;20.20;99.90;;;;;;5035306;28;20062;-74
2021/11/29 09:56:40;;;;;;;10.07;1.73;;;20.10;99.90;;;;;;5037586;28;20031;-78
2021/11/29 09:59:08;;;;;;;7.47;1.65;;;20.10;99.90;;;;;;5048462;28;20127;-78
2021/11/29 10:01:35;;;;;;;5.57;1.30;;;20.10;99.90;;;;;;5046472;28;20021;-78
2021/11/29 10:04:04;;;;;;;6.68;0.90;;;20.00;99.90;;;;;;5042513;28;20041;-78
2021/11/29 10:06:32;;;;;;;6.65;1.23;;;20.00;99.90;;;;;;5038891;28;20104;-75
2021/11/29 10:08:59;;;;;;;4.53;1.50;;;20.00;99.90;;;;;;5046271;28;20948;-78
2021/11/29 10:11:26;;;;;;;7.38;1.65;;;20.00;99.90;;;;;;5040366;28;20026;-78
2021/11/29 10:14:15;;;;;;;4.28;1.13;;;20.00;99.90;;;;;;5043040;28;20014;-77
2021/11/29 10:16:44;;;;;;;6.75;1.67;;;19.90;99.90;;;;;;5044951;28;20480;-77
2021/11/29 10:19:23;;;;;;;3.92;1.00;;;20.00;99.90;;;;;;5046294;28;20518;-79
2021/11/29 10:21:52;;;;;;;11.40;1.10;;;20.00;99.90;;;;;;5049967;28;20021;-76
2021/11/29 10:24:19;;;;;;;3.72;1.55;;;19.90;99.90;;;;;;5048090;28;20076;-76
2021/11/29 10:26:54;;;;;;;6.47;1.30;;;19.90;99.90;;;;;;5041302;28;20029;-76
2021/11/29 10:29:26;;;;;;;7.10;1.30;;;19.90;99.90;;;;;;5043708;28;20079;-76
2021/11/29 10:31:56;;;;;;;12.30;1.48;;;19.90;99.90;;;;;;5048657;28;20045;-77
2021/11/29 10:34:27;;;;;;;7.18;1.58;;;19.90;99.90;;;;;;5052004;28;20069;-79
2021/11/29 10:37:02;;;;;;;6.72;1.58;;;19.90;99.90;;;;;;5047570;28;20045;-77
2021/11/29 10:39:33;;;;;;;7.88;1.70;;;19.80;99.90;;;;;;5043296;28;20029;-77
2021/11/29 10:42:12;;;;;;;6.13;1.08;;;19.80;99.90;;;;;;5043761;28;20036;-77
2021/11/29 10:44:45;;;;;;;7.32;1.40;;;19.70;99.90;;;;;;5048924;28;20025;-79
2021/11/29 10:47:15;;;;;;;6.03;1.65;;;19.70;99.90;;;;;;5050395;28;20021;-77
2021/11/29 10:49:46;;;;;;;9.93;1.60;;;19.70;99.90;;;;;;5051959;28;20044;-75
2021/11/29 10:52:22;;;;;;;5.05;1.83;;;19.70;99.90;;;;;;5051196;28;20112;-77
2021/11/29 10:54:50;;;;;;;5.40;3.38;;;19.70;99.90;;;;;;5049288;28;20025;-75
2021/11/29 10:57:19;;;;;;;12.50;1.35;;;19.80;99.90;;;;;;5049219;28;20083;-74
2021/11/29 10:59:48;;;;;;;19.67;3.03;;;19.70;99.90;;;;;;5046505;28;20067;-77
2021/11/29 11:02:23;;;;;;;7.65;2.25;;;19.70;99.90;;;;;;5046679;28;20051;-77
2021/11/29 11:05:12;;;;;;;9.57;2.55;;;19.70;99.90;;;;;;5039509;28;20025;-77
2021/11/29 11:07:40;;;;;;;11.05;1.55;;;19.70;99.90;;;;;;5039515;28;20055;-78
2021/11/29 11:10:14;;;;;;;9.65;2.05;;;19.70;99.90;;;;;;5043887;28;20064;-77
2021/11/29 11:12:42;;;;;;;6.70;1.67;;;19.70;99.90;;;;;;5039971;28;20025;-78
2021/11/29 11:15:15;;;;;;;10.35;1.67;;;19.70;99.90;;;;;;5036523;28;20065;-79
2021/11/29 11:17:50;;;;;;;2.92;1.10;;;19.70;99.90;;;;;;5038320;28;20043;-77
2021/11/29 11:20:18;;;;;;;6.63;1.10;;;19.70;99.90;;;;;;5035958;28;20048;-79
2021/11/29 11:22:52;;;;;;;9.20;1.17;;;19.70;99.90;;;;;;5031857;28;20956;-78
2021/11/29 11:25:26;;;;;;;8.98;1.08;;;19.70;99.90;;;;;;5037484;28;20027;-78
2021/11/29 11:28:05;;;;;;;4.35;1.65;;;19.70;99.90;;;;;;5039102;28;20029;-77
2021/11/29 11:30:38;;;;;;;5.22;1.50;;;19.70;99.90;;;;;;5038794;28;20048;-74
2021/11/29 11:33:09;;;;;;;5.10;1.17;;;19.80;99.90;;;;;;5038263;28;20033;-77
2021/11/29 11:35:39;;;;;;;5.65;1.10;;;19.80;99.90;;;;;;5048629;28;20097;-77
2021/11/29 11:38:11;;;;;;;3.72;0.90;;;19.80;99.90;;;;;;5038328;28;20111;-80
2021/11/29 11:40:46;;;;;;;3.38;1.00;;;19.80;99.90;;;;;;5045444;28;20025;-78
2021/11/29 11:43:16;;;;;;;4.22;1.20;;;19.80;99.90;;;;;;5037608;28;20567;-78
2021/11/29 11:45:46;;;;;;;4.68;1.08;;;19.80;99.90;;;;;;5037563;28;20071;-74
2021/11/29 11:48:16;;;;;;;6.10;0.90;;;19.80;99.90;;;;;;5045706;28;20108;-77
2021/11/29 11:50:47;;;;;;;3.38;0.85;;;19.80;99.90;;;;;;5042961;28;20543;-74
2021/11/29 11:53:15;;;;;;;3.75;0.77;;;19.80;99.90;;;;;;5046891;28;20082;-77
2021/11/29 11:55:47;;;;;;;3.67;1.77;;;19.80;99.90;;;;;;5042330;28;20029;-77
2021/11/29 11:58:38;;;;;;;6.07;1.45;;;19.80;99.90;;;;;;5040233;28;20037;-77
2021/11/29 12:01:17;;;;;;;6.07;0.82;;;19.80;99.90;;;;;;5039933;28;20492;-78
2021/11/29 12:03:49;;;;;;;4.25;1.00;;;19.80;99.90;;;;;;5049806;28;20064;-74
2021/11/29 12:06:19;;;;;;;6.40;1.02;;;19.80;99.90;;;;;;5041485;28;20418;-79
2021/11/29 12:08:49;;;;;;;9.25;1.67;;;19.70;99.90;;;;;;5049391;28;20025;-78
2021/11/29 12:11:30;;;;;;;5.57;1.02;;;19.70;99.90;;;;;;5046006;28;20511;-79
2021/11/29 12:14:06;;;;;;;7.32;2.42;;;19.60;99.90;;;;;;5048780;28;20112;-78
2021/11/29 12:16:41;;;;;;;9.68;1.15;;;19.50;99.90;;;;;;5045622;28;20032;-73
2021/11/29 12:19:28;;;;;;;4.43;0.95;;;19.50;99.90;;;;;;5050515;28;20028;-74
2021/11/29 12:21:58;;;;;;;3.40;1.45;;;19.60;99.90;;;;;;5050245;28;20036;-77
2021/11/29 12:24:35;;;;;;;6.07;1.45;;;19.60;99.90;;;;;;5044195;28;20119;-75
2021/11/29 12:27:06;;;;;;;6.03;1.15;;;19.60;99.90;;;;;;5041898;28;20037;-75
2021/11/29 12:29:41;;;;;;;6.85;1.70;;;19.60;99.90;;;;;;5039151;28;20041;-72
2021/11/29 12:32:14;;;;;;;4.18;1.05;;;19.60;99.90;;;;;;5042017;28;20064;-75
2021/11/29 12:35:02;;;;;;;6.40;1.23;;;19.60;99.90;;;;;;5033888;28;20124;-74
2021/11/29 12:37:41;;;;;;;5.88;1.02;;;19.70;99.90;;;;;;5038924;28;20033;-77
2021/11/29 12:40:10;;;;;;;3.33;0.75;;;19.70;99.90;;;;;;5049230;28;20029;-75
2021/11/29 12:42:37;;;;;;;6.93;1.80;;;19.60;99.90;;;;;;5037321;28;20086;-76
2021/11/29 12:45:13;;;;;;;7.22;2.17;;;19.60;99.90;;;;;;5051122;28;20430;-76
2021/11/29 12:47:42;;;;;;;10.30;1.17;;;19.60;99.90;;;;;;5051211;28;20092;-80
2021/11/29 12:50:46;;;;;;;5.15;1.55;;;19.60;99.90;;;;;;5051911;28;20029;-77
2021/11/29 12:53:20;;;;;;;2.53;0.80;;;19.60;99.90;;;;;;5051949;28;20118;-79
2021/11/29 12:55:55;;;;;;;5.43;0.82;;;19.60;99.90;;;;;;5044200;28;20382;-75